SHT123 EGJB-EGLL
Flight info
| Callsign | SHT123 |
|---|---|
| Flight time | 0h -33m |
| Altitude | 19000 |
| Route | ORIST L982 ROXOG |
| Aircraft | A319/M-SDE3FGHIRWY/LB1 |
Departure
| Time | 2026-04-30 14:54 |
|---|---|
| Airport | Guernsey Airport (EGJB) |
Arrival
| Time | 2026-04-30 14:21 |
|---|---|
| Airport | London Heathrow Airport (EGLL) |
| Time | Latitude | Longitude | Altitude | Speed | Heading |
|---|---|---|---|---|---|
| 2026-04-30 14:20 | 51.46929 | -0.48649 | 79 ft | 0 kts | 0° |
| 2026-04-30 14:24 | 49.43296 | -2.59401 | 332 ft | 0 kts | 176° |
| 2026-04-30 14:44 | 49.43298 | -2.59401 | 332 ft | 2 kts | 175° |
| 2026-04-30 14:44 | 49.43314 | -2.59403 | 332 ft | 2 kts | 176° |
| 2026-04-30 14:45 | 49.43329 | -2.59404 | 332 ft | 2 kts | 176° |
| 2026-04-30 14:45 | 49.43344 | -2.59406 | 332 ft | 2 kts | 176° |
| 2026-04-30 14:45 | 49.43356 | -2.59407 | 332 ft | 0 kts | 176° |
| 2026-04-30 14:45 | 49.43366 | -2.59412 | 332 ft | 1 kts | 126° |
| 2026-04-30 14:46 | 49.43369 | -2.59425 | 332 ft | 1 kts | 83° |
| 2026-04-30 14:46 | 49.43368 | -2.59435 | 332 ft | 0 kts | 86° |
| 2026-04-30 14:48 | 49.43369 | -2.59417 | 332 ft | 3 kts | 86° |
| 2026-04-30 14:48 | 49.43370 | -2.59360 | 332 ft | 7 kts | 89° |
| 2026-04-30 14:49 | 49.43373 | -2.59257 | 331 ft | 11 kts | 79° |
| 2026-04-30 14:49 | 49.43360 | -2.59208 | 330 ft | 8 kts | 270° |
| 2026-04-30 14:49 | 49.43366 | -2.59296 | 331 ft | 8 kts | 277° |
| 2026-04-30 14:49 | 49.43368 | -2.59388 | 332 ft | 9 kts | 266° |
| 2026-04-30 14:50 | 49.43361 | -2.59653 | 329 ft | 15 kts | 268° |
| 2026-04-30 14:50 | 49.43344 | -2.59832 | 326 ft | 18 kts | 269° |
| 2026-04-30 14:51 | 49.43333 | -2.60307 | 311 ft | 25 kts | 267° |
| 2026-04-30 14:51 | 49.43326 | -2.60592 | 302 ft | 25 kts | 274° |
| 2026-04-30 14:51 | 49.43361 | -2.61024 | 296 ft | 20 kts | 267° |
| 2026-04-30 14:52 | 49.43357 | -2.61214 | 296 ft | 13 kts | 267° |
| 2026-04-30 14:52 | 49.43357 | -2.61229 | 296 ft | 1 kts | 276° |
| 2026-04-30 14:52 | 49.43367 | -2.61263 | 295 ft | 6 kts | 300° |
| 2026-04-30 14:53 | 49.43467 | -2.61298 | 294 ft | 11 kts | 85° |
| 2026-04-30 14:53 | 49.43473 | -2.61071 | 294 ft | 54 kts | 86° |
| 2026-04-30 14:54 | 49.43564 | -2.58233 | 648 ft | 183 kts | 88° |
| 2026-04-30 14:54 | 49.43703 | -2.53345 | 1814 ft | 245 kts | 90° |
| 2026-04-30 14:55 | 49.45355 | -2.48904 | 4074 ft | 262 kts | 29° |
| 2026-04-30 14:55 | 49.47236 | -2.48020 | 5123 ft | 269 kts | 18° |
| 2026-04-30 14:55 | 49.50457 | -2.45221 | 7034 ft | 271 kts | 39° |
| 2026-04-30 14:56 | 49.53509 | -2.41706 | 8931 ft | 278 kts | 41° |
| 2026-04-30 14:56 | 49.56555 | -2.38048 | 10743 ft | 285 kts | 42° |
| 2026-04-30 14:57 | 49.58123 | -2.36142 | 11611 ft | 288 kts | 43° |
| 2026-04-30 14:57 | 49.61283 | -2.32290 | 13293 ft | 295 kts | 43° |
| 2026-04-30 14:58 | 49.64528 | -2.28321 | 14874 ft | 303 kts | 43° |
| 2026-04-30 14:58 | 49.66182 | -2.26298 | 15617 ft | 307 kts | 43° |
| 2026-04-30 14:58 | 49.69656 | -2.22038 | 17130 ft | 316 kts | 44° |
| 2026-04-30 14:59 | 49.73207 | -2.17673 | 18517 ft | 324 kts | 44° |
| 2026-04-30 15:00 | 49.78620 | -2.11008 | 19052 ft | 326 kts | 44° |
| 2026-04-30 15:00 | 49.82215 | -2.06570 | 19057 ft | 326 kts | 44° |
| 2026-04-30 15:01 | 49.85704 | -2.02251 | 19066 ft | 326 kts | 44° |
| 2026-04-30 15:01 | 49.87533 | -1.99986 | 19059 ft | 326 kts | 44° |
| 2026-04-30 15:01 | 49.91192 | -1.95444 | 19066 ft | 326 kts | 44° |
| 2026-04-30 15:02 | 49.93022 | -1.93167 | 19064 ft | 325 kts | 44° |
| 2026-04-30 15:02 | 49.94793 | -1.90965 | 19070 ft | 325 kts | 44° |
| 2026-04-30 15:03 | 50.00169 | -1.84531 | 19076 ft | 331 kts | 38° |
| 2026-04-30 15:03 | 50.04242 | -1.81071 | 19093 ft | 335 kts | 32° |
| 2026-04-30 15:04 | 50.08340 | -1.77869 | 19086 ft | 334 kts | 32° |
| 2026-04-30 15:04 | 50.14159 | -1.72418 | 19094 ft | 327 kts | 44° |
| 2026-04-30 15:05 | 50.19421 | -1.65580 | 19103 ft | 326 kts | 45° |
| 2026-04-30 15:06 | 50.22889 | -1.61061 | 19098 ft | 327 kts | 45° |
| 2026-04-30 15:06 | 50.26504 | -1.56709 | 19092 ft | 332 kts | 35° |
| 2026-04-30 15:07 | 50.30843 | -1.54022 | 19105 ft | 339 kts | 21° |
| 2026-04-30 15:07 | 50.35424 | -1.51859 | 19099 ft | 338 kts | 21° |
| 2026-04-30 15:08 | 50.39973 | -1.49667 | 19105 ft | 337 kts | 21° |
| 2026-04-30 15:08 | 50.46669 | -1.46382 | 19099 ft | 337 kts | 22° |
| 2026-04-30 15:09 | 50.51024 | -1.44234 | 19106 ft | 337 kts | 22° |
| 2026-04-30 15:09 | 50.55369 | -1.41523 | 19126 ft | 332 kts | 32° |
| 2026-04-30 15:10 | 50.59409 | -1.38096 | 18746 ft | 323 kts | 34° |
| 2026-04-30 15:11 | 50.67070 | -1.31469 | 17655 ft | 305 kts | 34° |
| 2026-04-30 15:11 | 50.70739 | -1.28304 | 17196 ft | 295 kts | 34° |
| 2026-04-30 15:12 | 50.75980 | -1.23745 | 16564 ft | 291 kts | 36° |
| 2026-04-30 15:13 | 50.79370 | -1.20350 | 16145 ft | 287 kts | 39° |
| 2026-04-30 15:14 | 50.85994 | -1.13501 | 15420 ft | 283 kts | 39° |
| 2026-04-30 15:14 | 50.90868 | -1.08455 | 14903 ft | 281 kts | 38° |
| 2026-04-30 15:16 | 50.98989 | -1.00011 | 13801 ft | 274 kts | 40° |
| 2026-04-30 15:17 | 51.04281 | -0.91789 | 12942 ft | 265 kts | 53° |
| 2026-04-30 15:18 | 51.10327 | -0.80987 | 11470 ft | 258 kts | 53° |
| 2026-04-30 15:19 | 51.13884 | -0.74635 | 10533 ft | 255 kts | 53° |